»·PEaware :: N172TT KSNA-KBUR

N172TT :: KSNA-KBUR

FLIGHT INFORMATION

Flight Status: Arrived
Operator: Privately registered:
United States
More flights under this callsign
Pilot: Thomas T. (19955)
Aircraft: CESSNA 172 SKYHAWK
(C172)
More flights by this aircraft type
Origin: KSNA John Wayne-Orange Co
United States
Destination: KBUR Bob Hope-Burbank
United States
More flights between these airports :: More routes between these airports
Route: +SLI V23 POPPR SMO125R SMO SMO311R SILEX
File this flight plan on PilotEdge
Remarks: TRAING FLIGHT I3 RATING
Altitude:
(Current/Filed)
4,000ft
Speed:
(Current/Filed)
118kts
Departed: 30-Sep-18 12:57 PM
Arrived: 30-Sep-18 01:37 PM
Distance/Time
Traveled:
40nm/0:40
Distance/Time
To Go:
Arrived

Flight Plot

Page will automatically refresh every two minutes.


Map Options




Map Legend


Flown Route
Filed Route
Departure Airport
Arrival Airport
Navaid (VOR, NDB)
Fix

Horizontal Profiles

Position Reports

Time Latitude Longitude Heading Altitude Ground
Speed
30-Sep-18 12:41 33.676080 -117.870909 219 60ft 0kts
30-Sep-18 12:42 33.676080 -117.870909 219 60ft 0kts
30-Sep-18 12:43 33.676080 -117.870909 219 60ft 0kts
30-Sep-18 12:44 33.676080 -117.870909 219 60ft 0kts
30-Sep-18 12:45 33.676080 -117.870909 219 60ft 0kts
30-Sep-18 12:46 33.676080 -117.870909 219 60ft 0kts
30-Sep-18 12:47 33.676080 -117.870909 219 60ft 0kts
30-Sep-18 12:48 33.676080 -117.870909 219 60ft 0kts
30-Sep-18 12:49 33.676080 -117.870909 219 60ft 0kts
30-Sep-18 12:50 33.676080 -117.870909 219 60ft 0kts
30-Sep-18 12:51 33.676080 -117.870909 219 60ft 0kts
30-Sep-18 12:52 33.676080 -117.870909 219 60ft 0kts
30-Sep-18 12:53 33.676080 -117.870909 219 60ft 0kts
30-Sep-18 12:54 33.676065 -117.870921 209 60ft 3kts
30-Sep-18 12:55 33.677528 -117.869175 25 60ft 13kts
30-Sep-18 12:56 33.678078 -117.868660 76 60ft 0kts
30-Sep-18 12:57 33.678078 -117.868660 76 60ft 0kts
30-Sep-18 12:58 33.678038 -117.868294 106 60ft 9kts
30-Sep-18 12:59 33.670231 -117.872652 211 216ft 79kts
30-Sep-18 13:00 33.651857 -117.891290 230 843ft 89kts
30-Sep-18 13:01 33.636571 -117.914113 231 1540ft 87kts
30-Sep-18 13:02 33.620800 -117.937781 231 2235ft 99kts
30-Sep-18 13:03 33.602604 -117.963967 229 2937ft 103kts
30-Sep-18 13:04 33.600724 -117.993644 305 3619ft 100kts
30-Sep-18 13:05 33.621020 -118.019364 311 3955ft 117kts
30-Sep-18 13:06 33.643672 -118.046942 311 3954ft 115kts
30-Sep-18 13:07 33.666222 -118.074415 311 3954ft 116kts
30-Sep-18 13:08 33.688935 -118.102110 310 3954ft 116kts
30-Sep-18 13:09 33.702568 -118.134260 285 3947ft 113kts
30-Sep-18 13:10 33.718163 -118.167031 314 3942ft 116kts
30-Sep-18 13:11 33.742864 -118.191795 316 3941ft 116kts
30-Sep-18 13:12 33.768008 -118.216162 316 3939ft 115kts
30-Sep-18 13:13 33.792706 -118.240273 317 3937ft 114kts
30-Sep-18 13:14 33.817101 -118.264128 318 3933ft 113kts
30-Sep-18 13:15 33.841404 -118.287915 318 3928ft 112kts
30-Sep-18 13:16 33.865197 -118.311769 319 3922ft 112kts
30-Sep-18 13:17 33.889199 -118.335873 319 3916ft 113kts
30-Sep-18 13:18 33.913259 -118.360054 319 3918ft 112kts
30-Sep-18 13:19 33.936701 -118.383642 318 4013ft 112kts
30-Sep-18 13:20 33.960675 -118.407769 318 4008ft 113kts
30-Sep-18 13:21 33.984750 -118.432357 311 4002ft 113kts
30-Sep-18 13:22 34.006657 -118.459830 311 3997ft 114kts
30-Sep-18 13:23 34.028937 -118.487142 311 3994ft 115kts
30-Sep-18 13:24 34.051861 -118.514753 311 3992ft 117kts
30-Sep-18 13:25 34.075241 -118.542610 311 3993ft 118kts
30-Sep-18 13:26 34.097918 -118.569374 311 3994ft 112kts
30-Sep-18 13:27 34.119485 -118.595013 311 3985ft 109kts
30-Sep-18 13:28 34.139380 -118.619038 311 3971ft 94kts
30-Sep-18 13:29 34.159246 -118.644007 311 3971ft 109kts
30-Sep-18 13:30 34.181486 -118.665178 4 3962ft 115kts
30-Sep-18 13:31 34.197000 -118.631833 69 3956ft 121kts
30-Sep-18 13:32 34.200615 -118.592359 83 3955ft 112kts
30-Sep-18 13:33 34.200075 -118.554889 92 3792ft 116kts
30-Sep-18 13:34 34.198868 -118.514465 86 3170ft 124kts
30-Sep-18 13:35 34.199575 -118.473315 90 2486ft 118kts
30-Sep-18 13:36 34.198399 -118.436835 90 1875ft 97kts
30-Sep-18 13:37 34.198737 -118.407983 92 1395ft 68kts
30-Sep-18 13:38 34.198098 -118.384359 90 1044ft 74kts
30-Sep-18 13:39 34.197959 -118.364582 269 735ft 0kts
30-Sep-18 13:40 34.197925 -118.364568 323 734ft 0kts
30-Sep-18 13:41 34.197925 -118.364568 323 734ft 0kts
30-Sep-18 13:42 34.197925 -118.364568 323 734ft 0kts

Navigation Log

Ident Type
1. KSNA Airport
2. SLI Navaid
3. POPPR Fix
4. SMO Navaid
5. SILEX Fix
6. KBUR Airport